TFM - Tactical Decision Aid
ID: Runway Winds: CIG/VIS Threshold:

KPNE - Philadelphia/NE Arpt, PA, US

Updated at: 1833 UTC 26 Oct 2021
Latest TAF at: 1741 UTC 26 Oct 2021

TAF Board

Time1822Z 26/19Z 26/20Z 26/21Z 26/22Z 26/23Z 27/00Z 27/01Z 27/02Z 27/03Z 27/04Z 27/05Z 27/06Z 27/07Z>>
Type OBS PRVL PRVL PRVL PRVL PRVL PRVL PRVL PRVL PRVL PRVL PRVL PRVL PRVL
VIS 10 >6 6 6 6 6 6 6 5 5 5 5 6 6
CIG 23 15 15 15 15 15 15 15 15 15 15 15 15 15
Cover OVC OVC OVC OVC OVC OVC OVC OVC OVC OVC OVC OVC OVC OVC
FltCat MVFR MVFR MVFR MVFR MVFR MVFR MVFR MVFR MVFR MVFR MVFR MVFR MVFR MVFR
WX -- VCSH BR VCSH BR VCSH BR VCSH BR VCSH BR VCSH BR VCSH RA RA RA RA BR BR
WDir 260 270 320 320 320 320 320 320 360 360 360 360 350 350
WSpd 12 10 11 11 11 11 11 11 12 12 12 12 15 15
WGst 17 18 22 22 22 22 22 22 23 23 23 23 20 20

TDA Impact Legend

  None Marginal Slight Moderate High
Visibility (sm) >5 3≤X≤5 2≤X<3 0.5≤X<2 <0.5
Ceiling (100 ft) >30 10≤X≤30 6≤X<10 2≤X<6 <2
Wind Speed (kt) <15 15≤X<25 25≤X<30 ≥30
Wind Gust (kt) <15 15≤X<25 25≤X<35 ≥35
Weather No Wx Reported VCTS -TS,-FZRA TS,FZRA +TS,+FZRA
TAF
KPNE 261741Z 2618/2718 27010G18KT P6SM VCSH BKN015 OVC080
  FM262000 32011G22KT 6SM BR VCSH OVC015
  FM270200 36012G23KT 5SM RA OVC015
  FM270600 35015G20KT 6SM BR OVC015
  FM271100 34014G22KT P6SM BKN035
  FM271700 35014KT 6SM BR BKN110


METAR
KPNE 261822Z 26012G17KT 10SM SCT016 BKN023 OVC042 17/16 A2938 RMK AO2 RAE16 P0000 T01670156
KPNE 261754Z 29009KT 5SM -RA BR FEW020 BKN030 OVC046 17/16 A2938 RMK AO2 RAB51 SLP949 P0000 60002 T01720156 10178 20144 56020
KPNE 261654Z 27010G17KT 10SM BKN017 BKN023 OVC080 18/16 A2939 RMK AO2 SLP952 T01780156
KPNE 261647Z 27013G17KT 10SM BKN015 OVC080 18/16 A2940 RMK AO2 T01780156
KPNE 261616Z 28010KT 10SM OVC014 18/16 A2941 RMK AO2 T01780156
KPNE 261554Z 28009KT 10SM BKN015 BKN025 BKN090 17/15 A2941 RMK AO2 RAE04 SLP960 P0001 T01720150
KPNE 261538Z 31009G17KT 10SM BKN026 BKN090 17/14 A2942 RMK AO2 RAE04 P0001 T01670144
KPNE 261525Z 31008KT 10SM SCT027 SCT038 SCT070 17/15 A2942 RMK AO2 RAE04 P0001 T01670150

Radar Display
Forecast Discussion